Time;durP1;ratioP1;P1;durP2;ratioP2;P2;SDS_P1;SDS_P2;PMS_P1;PMS_P2;Temp;Humidity;BMP_temperature;BMP_pressure;BME280_temperature;BME280_humidity;BME280_pressure;Samples;Min_cycle;Max_cycle;Signal;HPM_P1;HPM_P2
2023/03/01 00:01:12;;;;;;;3.00;1.40;;;;;;;;;;5079515;27;84169;-54
2023/03/01 00:03:40;;;;;;;2.20;1.20;;;;;;;;;;5080698;27;81850;-54
2023/03/01 00:06:08;;;;;;;1.33;1.00;;;;;;;;;;5071063;27;82030;-54
2023/03/01 00:08:37;;;;;;;1.47;1.27;;;;;;;;;;5085267;27;83092;-54
2023/03/01 00:11:06;;;;;;;1.30;1.00;;;;;;;;;;5079840;27;83891;-53
2023/03/01 00:13:34;;;;;;;2.03;1.37;;;;;;;;;;5074091;27;85393;-54
2023/03/01 00:16:04;;;;;;;1.37;1.27;;;;;;;;;;5083650;27;82004;-54
2023/03/01 00:18:33;;;;;;;1.47;1.33;;;;;;;;;;5082995;27;82816;-54
2023/03/01 00:21:01;;;;;;;2.87;1.07;;;;;;;;;;5069403;27;83090;-53
2023/03/01 00:23:29;;;;;;;1.20;0.90;;;;;;;;;;5068983;27;82745;-54
2023/03/01 00:25:58;;;;;;;0.60;0.60;;;;;;;;;;5082231;27;83975;-54
2023/03/01 00:28:26;;;;;;;1.67;0.90;;;;;;;;;;5065178;27;82949;-53
2023/03/01 00:30:54;;;;;;;0.80;0.80;;;;;;;;;;5075365;27;81861;-53
2023/03/01 00:33:24;;;;;;;2.27;1.20;;;;;;;;;;5077003;27;82403;-53
2023/03/01 00:35:52;;;;;;;3.60;1.03;;;;;;;;;;5066869;27;83817;-55
2023/03/01 00:38:21;;;;;;;0.90;0.77;;;;;;;;;;5085027;27;81928;-55
2023/03/01 00:40:49;;;;;;;1.27;0.87;;;;;;;;;;5083489;27;84160;-55
2023/03/01 00:43:18;;;;;;;1.67;1.00;;;;;;;;;;5078681;27;82000;-55
2023/03/01 00:45:46;;;;;;;0.90;0.70;;;;;;;;;;5080445;27;83022;-55
2023/03/01 00:48:14;;;;;;;1.33;1.20;;;;;;;;;;5083961;27;82775;-56
2023/03/01 00:50:44;;;;;;;0.83;0.77;;;;;;;;;;5083608;27;82745;-56
2023/03/01 00:53:12;;;;;;;1.33;1.23;;;;;;;;;;5039944;27;82617;-55
2023/03/01 00:55:41;;;;;;;2.20;1.03;;;;;;;;;;5043838;27;82155;-55
2023/03/01 00:58:09;;;;;;;1.80;0.97;;;;;;;;;;5040354;27;82649;-55
2023/03/01 01:00:37;;;;;;;1.67;0.73;;;;;;;;;;5038825;27;84188;-55
2023/03/01 01:03:06;;;;;;;0.93;0.83;;;;;;;;;;5042493;27;83921;-55
2023/03/01 01:05:35;;;;;;;1.03;0.67;;;;;;;;;;5041716;27;82616;-56
2023/03/01 01:08:05;;;;;;;0.87;0.70;;;;;;;;;;5039208;28;84347;-56
2023/03/01 01:10:35;;;;;;;0.63;0.50;;;;;;;;;;5035002;27;83261;-55
2023/03/01 01:13:03;;;;;;;0.70;0.60;;;;;;;;;;5024868;28;82187;-55
2023/03/01 01:15:33;;;;;;;1.03;0.90;;;;;;;;;;5037210;27;81994;-56
2023/03/01 01:18:02;;;;;;;0.70;0.70;;;;;;;;;;5023815;28;81820;-56
2023/03/01 01:20:30;;;;;;;1.47;0.77;;;;;;;;;;5042779;28;83691;-56
2023/03/01 01:22:58;;;;;;;2.80;0.70;;;;;;;;;;5028366;28;82739;-56
2023/03/01 01:25:28;;;;;;;2.53;0.70;;;;;;;;;;5039002;28;83034;-56
2023/03/01 01:27:56;;;;;;;1.20;1.10;;;;;;;;;;5043343;28;82570;-55
2023/03/01 01:30:25;;;;;;;1.23;0.70;;;;;;;;;;5041721;28;84021;-55
2023/03/01 01:32:53;;;;;;;0.47;0.40;;;;;;;;;;5032494;27;83796;-55
2023/03/01 01:35:21;;;;;;;4.33;0.50;;;;;;;;;;5040642;27;81965;-55
2023/03/01 01:37:50;;;;;;;2.63;0.77;;;;;;;;;;5036915;27;82778;-55
2023/03/01 01:40:18;;;;;;;0.73;0.70;;;;;;;;;;5031222;28;83119;-55
2023/03/01 01:42:48;;;;;;;1.40;1.10;;;;;;;;;;5027100;27;82683;-55
2023/03/01 01:45:30;;;;;;;1.33;0.63;;;;;;;;;;5024020;28;82004;-56
2023/03/01 01:48:00;;;;;;;0.80;0.77;;;;;;;;;;5023732;28;83917;-55
2023/03/01 01:50:38;;;;;;;1.63;0.97;;;;;;;;;;5024065;28;82921;-56
2023/03/01 01:53:07;;;;;;;2.10;0.80;;;;;;;;;;5063412;27;83875;-55
2023/03/01 01:55:35;;;;;;;1.07;0.97;;;;;;;;;;5072687;27;82208;-55
2023/03/01 01:58:06;;;;;;;1.27;0.53;;;;;;;;;;5064309;27;83977;-55
2023/03/01 02:00:34;;;;;;;5.07;0.80;;;;;;;;;;5079922;27;84005;-56
2023/03/01 02:03:03;;;;;;;1.00;0.60;;;;;;;;;;5081335;27;82854;-55
2023/03/01 02:05:35;;;;;;;0.93;0.93;;;;;;;;;;5095178;27;83853;-56
2023/03/01 02:08:03;;;;;;;1.67;0.73;;;;;;;;;;5064329;27;82513;-55
2023/03/01 02:10:31;;;;;;;0.50;0.50;;;;;;;;;;5076112;27;82921;-55
2023/03/01 02:13:00;;;;;;;1.37;0.60;;;;;;;;;;5078340;27;82256;-56
2023/03/01 02:15:29;;;;;;;0.73;0.73;;;;;;;;;;5078768;27;85085;-55
2023/03/01 02:17:57;;;;;;;0.53;0.50;;;;;;;;;;5076816;27;82418;-55
2023/03/01 02:20:28;;;;;;;1.20;0.73;;;;;;;;;;5070462;27;83191;-55
2023/03/01 02:22:56;;;;;;;1.97;0.50;;;;;;;;;;5090572;27;84035;-56
2023/03/01 02:25:28;;;;;;;0.70;0.70;;;;;;;;;;5092132;27;81973;-55
2023/03/01 02:27:58;;;;;;;1.13;0.80;;;;;;;;;;5082923;27;82669;-55
2023/03/01 02:30:28;;;;;;;1.17;0.87;;;;;;;;;;5084538;27;83006;-55
2023/03/01 02:33:02;;;;;;;0.50;0.47;;;;;;;;;;5086253;27;83873;-55
2023/03/01 02:35:30;;;;;;;0.80;0.80;;;;;;;;;;5083611;27;83979;-55
2023/03/01 02:38:00;;;;;;;1.00;0.90;;;;;;;;;;5083553;27;81957;-55
2023/03/01 02:40:29;;;;;;;1.90;1.23;;;;;;;;;;5084315;27;83418;-55
2023/03/01 02:42:57;;;;;;;0.67;0.60;;;;;;;;;;5084092;27;83665;-56
2023/03/01 02:45:26;;;;;;;1.27;0.77;;;;;;;;;;5086004;27;83691;-56
2023/03/01 02:47:56;;;;;;;0.97;0.80;;;;;;;;;;5084435;27;84699;-56
2023/03/01 02:50:27;;;;;;;1.50;0.77;;;;;;;;;;5074375;27;83073;-54
2023/03/01 02:52:57;;;;;;;2.10;0.87;;;;;;;;;;5089021;27;82970;-55
2023/03/01 02:55:25;;;;;;;2.00;0.70;;;;;;;;;;5096343;27;82025;-54
2023/03/01 02:57:54;;;;;;;1.10;0.80;;;;;;;;;;5087799;27;81817;-56
2023/03/01 03:00:22;;;;;;;3.33;0.80;;;;;;;;;;5098599;27;82817;-56
2023/03/01 03:02:51;;;;;;;0.80;0.63;;;;;;;;;;5091485;27;83864;-55
2023/03/01 03:05:21;;;;;;;0.70;0.70;;;;;;;;;;5100544;27;82778;-55
2023/03/01 03:07:50;;;;;;;1.27;0.80;;;;;;;;;;5099654;27;83841;-55
2023/03/01 03:10:20;;;;;;;0.93;0.83;;;;;;;;;;5097556;27;81823;-56
2023/03/01 03:12:50;;;;;;;1.50;0.63;;;;;;;;;;5092515;27;82914;-55
2023/03/01 03:15:18;;;;;;;1.13;0.70;;;;;;;;;;5088282;27;81981;-55
2023/03/01 03:17:46;;;;;;;0.73;0.63;;;;;;;;;;5090745;27;83203;-56
2023/03/01 03:20:18;;;;;;;0.70;0.60;;;;;;;;;;5081908;27;84354;-55
2023/03/01 03:22:49;;;;;;;0.93;0.83;;;;;;;;;;5091832;27;82806;-55
2023/03/01 03:25:17;;;;;;;0.67;0.60;;;;;;;;;;5090474;27;82048;-55
2023/03/01 03:27:46;;;;;;;0.60;0.60;;;;;;;;;;5102972;27;82847;-55
2023/03/01 03:30:15;;;;;;;0.60;0.50;;;;;;;;;;5093191;27;85164;-56
2023/03/01 03:32:50;;;;;;;0.87;0.60;;;;;;;;;;5098621;27;82450;-56
2023/03/01 03:35:18;;;;;;;2.17;0.70;;;;;;;;;;5100035;27;81893;-54
2023/03/01 03:38:05;;;;;;;0.60;0.60;;;;;;;;;;5106002;27;82825;-56
2023/03/01 03:40:36;;;;;;;1.33;0.83;;;;;;;;;;5070738;27;83266;-55
2023/03/01 03:43:04;;;;;;;0.60;0.60;;;;;;;;;;5106617;27;82936;-55
2023/03/01 03:45:34;;;;;;;0.63;0.60;;;;;;;;;;5091130;27;82112;-54
2023/03/01 03:48:03;;;;;;;0.73;0.73;;;;;;;;;;5097705;27;81727;-55
2023/03/01 03:50:31;;;;;;;1.23;0.80;;;;;;;;;;5102367;27;84209;-55
2023/03/01 03:53:01;;;;;;;0.50;0.50;;;;;;;;;;5096877;27;83566;-56
2023/03/01 03:55:30;;;;;;;0.77;0.77;;;;;;;;;;5098574;27;83401;-55
2023/03/01 03:58:02;;;;;;;1.00;0.90;;;;;;;;;;5095278;27;82523;-56
2023/03/01 04:00:30;;;;;;;0.50;0.50;;;;;;;;;;5095153;27;83992;-55
2023/03/01 04:02:58;;;;;;;0.50;0.50;;;;;;;;;;5092341;27;83307;-55
2023/03/01 04:05:27;;;;;;;0.60;0.60;;;;;;;;;;5088716;27;81867;-57
2023/03/01 04:08:06;;;;;;;1.00;0.60;;;;;;;;;;5094736;27;82787;-56
2023/03/01 04:10:36;;;;;;;0.50;0.50;;;;;;;;;;5089523;27;83967;-55
2023/03/01 04:13:06;;;;;;;0.90;0.83;;;;;;;;;;5102846;27;83273;-55
2023/03/01 04:15:34;;;;;;;0.50;0.50;;;;;;;;;;5089437;27;81933;-55
2023/03/01 04:18:03;;;;;;;0.70;0.70;;;;;;;;;;5089339;27;82967;-55
2023/03/01 04:20:33;;;;;;;0.60;0.60;;;;;;;;;;5086632;27;85260;-55
2023/03/01 04:23:10;;;;;;;1.03;0.73;;;;;;;;;;5097453;27;83947;-55
2023/03/01 04:25:39;;;;;;;1.33;0.63;;;;;;;;;;5087657;27;81872;-57
2023/03/01 04:28:09;;;;;;;0.63;0.57;;;;;;;;;;5095172;27;82559;-56
2023/03/01 04:30:37;;;;;;;1.30;0.80;;;;;;;;;;5085629;27;82623;-55
2023/03/01 04:33:06;;;;;;;1.83;0.70;;;;;;;;;;5087211;27;82570;-55
2023/03/01 04:35:34;;;;;;;0.77;0.53;;;;;;;;;;5089918;27;82128;-54
2023/03/01 04:38:03;;;;;;;0.80;0.73;;;;;;;;;;5099909;27;82737;-56
2023/03/01 04:40:31;;;;;;;0.93;0.70;;;;;;;;;;5090289;27;82807;-56
2023/03/01 04:42:59;;;;;;;0.60;0.60;;;;;;;;;;5098499;27;82609;-56
2023/03/01 04:45:29;;;;;;;1.33;0.90;;;;;;;;;;5085796;27;82864;-56
2023/03/01 04:47:58;;;;;;;0.60;0.60;;;;;;;;;;5090084;27;83809;-56
2023/03/01 04:50:26;;;;;;;0.50;0.50;;;;;;;;;;5098438;27;84004;-56
2023/03/01 04:52:58;;;;;;;0.60;0.60;;;;;;;;;;5089159;27;82834;-57
2023/03/01 04:55:26;;;;;;;0.63;0.63;;;;;;;;;;5089635;27;81963;-54
2023/03/01 04:57:55;;;;;;;0.97;0.97;;;;;;;;;;5091145;27;82998;-54
2023/03/01 05:00:23;;;;;;;1.10;0.80;;;;;;;;;;5089908;27;82032;-54
2023/03/01 05:02:56;;;;;;;0.70;0.60;;;;;;;;;;5087243;27;83817;-54
2023/03/01 05:05:26;;;;;;;0.47;0.47;;;;;;;;;;5097284;27;81984;-55
2023/03/01 05:07:55;;;;;;;1.97;0.90;;;;;;;;;;5086748;27;82920;-56
2023/03/01 05:10:24;;;;;;;0.60;0.50;;;;;;;;;;5091879;27;84113;-55
2023/03/01 05:12:53;;;;;;;2.40;1.27;;;;;;;;;;5086359;27;84927;-55
2023/03/01 05:15:25;;;;;;;0.90;0.83;;;;;;;;;;5090803;27;82481;-55
2023/03/01 05:17:55;;;;;;;0.77;0.77;;;;;;;;;;5086930;27;82550;-56
2023/03/01 05:20:23;;;;;;;0.70;0.70;;;;;;;;;;5089030;27;83549;-56
2023/03/01 05:22:52;;;;;;;2.80;0.80;;;;;;;;;;5083376;27;82693;-55
2023/03/01 05:25:21;;;;;;;0.60;0.60;;;;;;;;;;5083021;27;82271;-55
2023/03/01 05:27:49;;;;;;;0.50;0.50;;;;;;;;;;5097353;27;82225;-56
2023/03/01 05:30:18;;;;;;;0.63;0.63;;;;;;;;;;5099345;27;84755;-56
2023/03/01 05:32:47;;;;;;;0.57;0.53;;;;;;;;;;5090887;27;82826;-56
2023/03/01 05:35:17;;;;;;;0.53;0.53;;;;;;;;;;5100133;27;82984;-55
2023/03/01 05:37:47;;;;;;;0.90;0.60;;;;;;;;;;5094964;27;81978;-56
2023/03/01 05:40:16;;;;;;;1.50;0.87;;;;;;;;;;5088688;27;83059;-55
2023/03/01 05:42:45;;;;;;;1.57;0.70;;;;;;;;;;5090008;27;83398;-55
2023/03/01 05:45:13;;;;;;;1.20;0.90;;;;;;;;;;5096502;27;81916;-55
2023/03/01 05:47:43;;;;;;;0.90;0.70;;;;;;;;;;5086521;27;83555;-56
2023/03/01 05:50:13;;;;;;;1.00;0.50;;;;;;;;;;5086258;27;83060;-59
2023/03/01 05:52:42;;;;;;;0.77;0.67;;;;;;;;;;5096948;27;82638;-59
2023/03/01 05:55:11;;;;;;;0.70;0.70;;;;;;;;;;5097731;27;81852;-56
2023/03/01 05:57:40;;;;;;;0.83;0.77;;;;;;;;;;5092692;27;83015;-61
2023/03/01 06:00:09;;;;;;;1.27;0.90;;;;;;;;;;5086384;27;83943;-57
2023/03/01 06:02:37;;;;;;;0.70;0.70;;;;;;;;;;5085211;27;84802;-60
2023/03/01 06:05:06;;;;;;;0.60;0.60;;;;;;;;;;5085106;27;81847;-59
2023/03/01 06:07:35;;;;;;;0.87;0.73;;;;;;;;;;5085665;27;85465;-57
2023/03/01 06:10:04;;;;;;;1.07;1.00;;;;;;;;;;5098590;27;83088;-57
2023/03/01 06:12:33;;;;;;;1.10;0.73;;;;;;;;;;5085733;27;82926;-58
2023/03/01 06:15:01;;;;;;;1.80;0.77;;;;;;;;;;5093790;27;82006;-56
2023/03/01 06:17:30;;;;;;;0.83;0.70;;;;;;;;;;5092850;27;82715;-55
2023/03/01 06:19:59;;;;;;;0.40;0.40;;;;;;;;;;5088434;27;84167;-56
2023/03/01 06:22:27;;;;;;;0.87;0.70;;;;;;;;;;5087407;27;83738;-56
2023/03/01 06:24:55;;;;;;;0.90;0.67;;;;;;;;;;5088413;27;82961;-55
2023/03/01 06:27:25;;;;;;;0.70;0.60;;;;;;;;;;5088114;27;82831;-55
2023/03/01 06:29:53;;;;;;;1.60;1.03;;;;;;;;;;5088524;27;83189;-55
2023/03/01 06:32:22;;;;;;;0.97;0.60;;;;;;;;;;5093399;27;83995;-55
2023/03/01 06:34:50;;;;;;;1.80;0.77;;;;;;;;;;5088188;27;81977;-55
2023/03/01 06:37:19;;;;;;;1.83;0.77;;;;;;;;;;5094199;27;82848;-56
2023/03/01 06:39:47;;;;;;;1.17;0.93;;;;;;;;;;5091726;27;83078;-56
2023/03/01 06:42:16;;;;;;;1.30;0.97;;;;;;;;;;5088134;27;81678;-55
2023/03/01 06:44:46;;;;;;;0.80;0.80;;;;;;;;;;5084698;27;81982;-54
2023/03/01 06:47:15;;;;;;;1.03;0.60;;;;;;;;;;5097736;27;82664;-56
2023/03/01 06:49:43;;;;;;;0.70;0.70;;;;;;;;;;5090254;27;84304;-57
2023/03/01 06:52:11;;;;;;;0.87;0.83;;;;;;;;;;5089409;27;83547;-56
2023/03/01 06:54:40;;;;;;;1.33;1.10;;;;;;;;;;5093581;27;81911;-55
2023/03/01 06:57:08;;;;;;;0.70;0.60;;;;;;;;;;5100196;27;82900;-56
2023/03/01 06:59:36;;;;;;;1.13;0.90;;;;;;;;;;5086896;27;83253;-56
2023/03/01 07:02:06;;;;;;;0.70;0.70;;;;;;;;;;5082917;27;82551;-55
2023/03/01 07:04:34;;;;;;;1.13;0.80;;;;;;;;;;5089962;27;81950;-55
2023/03/01 07:07:03;;;;;;;0.97;0.63;;;;;;;;;;5088231;27;81456;-56
2023/03/01 07:09:31;;;;;;;0.83;0.60;;;;;;;;;;5092212;27;85355;-55
2023/03/01 07:11:59;;;;;;;0.77;0.77;;;;;;;;;;5087135;27;82873;-57
2023/03/01 07:14:28;;;;;;;3.27;0.60;;;;;;;;;;5086736;27;82968;-56
2023/03/01 07:16:56;;;;;;;1.40;0.83;;;;;;;;;;5094358;27;82707;-53
2023/03/01 07:19:26;;;;;;;0.73;0.70;;;;;;;;;;5098821;27;84301;-54
2023/03/01 07:21:55;;;;;;;0.70;0.50;;;;;;;;;;5091383;27;82817;-53
2023/03/01 07:24:23;;;;;;;0.40;0.40;;;;;;;;;;5076101;27;81999;-55
2023/03/01 07:26:53;;;;;;;0.67;0.60;;;;;;;;;;5089438;27;82875;-54
2023/03/01 07:29:21;;;;;;;0.47;0.47;;;;;;;;;;5085221;27;87004;-56
2023/03/01 07:31:50;;;;;;;0.93;0.73;;;;;;;;;;5074016;27;86624;-57
2023/03/01 07:34:18;;;;;;;0.60;0.43;;;;;;;;;;5070744;27;88167;-56
2023/03/01 07:36:48;;;;;;;0.53;0.53;;;;;;;;;;5079496;27;86964;-56
2023/03/01 07:39:16;;;;;;;1.60;0.60;;;;;;;;;;5089938;27;89073;-57
2023/03/01 07:41:46;;;;;;;0.40;0.40;;;;;;;;;;5101817;27;88675;-57
2023/03/01 07:44:15;;;;;;;0.87;0.67;;;;;;;;;;5103763;27;87139;-56
2023/03/01 07:46:43;;;;;;;0.93;0.80;;;;;;;;;;5088255;27;87112;-57
2023/03/01 07:49:12;;;;;;;0.73;0.73;;;;;;;;;;5085454;27;87751;-57
2023/03/01 07:51:40;;;;;;;0.40;0.40;;;;;;;;;;5084347;27;87970;-56
2023/03/01 07:54:10;;;;;;;0.87;0.60;;;;;;;;;;5084302;27;87013;-56
2023/03/01 07:56:38;;;;;;;0.60;0.60;;;;;;;;;;5084988;27;86297;-56
2023/03/01 07:59:06;;;;;;;0.73;0.73;;;;;;;;;;5085448;27;87946;-57
2023/03/01 08:01:35;;;;;;;1.27;0.87;;;;;;;;;;5083579;27;87798;-56
2023/03/01 08:04:06;;;;;;;1.07;0.50;;;;;;;;;;5084150;27;88121;-56
2023/03/01 08:06:35;;;;;;;0.93;0.93;;;;;;;;;;5082606;27;87144;-54
2023/03/01 08:09:03;;;;;;;1.33;0.97;;;;;;;;;;5084813;27;89092;-57
2023/03/01 08:11:33;;;;;;;1.37;0.60;;;;;;;;;;5084477;27;87744;-55
2023/03/01 08:14:01;;;;;;;0.40;0.40;;;;;;;;;;5084994;27;87374;-57
2023/03/01 08:16:30;;;;;;;1.10;0.63;;;;;;;;;;5104458;27;86924;-54
2023/03/01 08:19:01;;;;;;;0.50;0.40;;;;;;;;;;5091857;27;88084;-54
2023/03/01 08:21:29;;;;;;;0.87;0.63;;;;;;;;;;5084412;27;87978;-54
2023/03/01 08:23:58;;;;;;;0.47;0.47;;;;;;;;;;5084027;27;86985;-54
2023/03/01 08:26:26;;;;;;;0.50;0.50;;;;;;;;;;5082267;27;87069;-55
2023/03/01 08:28:56;;;;;;;0.90;0.60;;;;;;;;;;5085738;27;89030;-54
2023/03/01 08:31:25;;;;;;;0.60;0.60;;;;;;;;;;5102447;27;88909;-54
2023/03/01 08:33:55;;;;;;;0.57;0.57;;;;;;;;;;5100520;27;87063;-54
2023/03/01 08:36:24;;;;;;;0.60;0.60;;;;;;;;;;5101531;27;87300;-55
2023/03/01 08:38:53;;;;;;;0.60;0.60;;;;;;;;;;5095131;27;89275;-54
2023/03/01 08:41:21;;;;;;;0.67;0.50;;;;;;;;;;5095007;27;88839;-54
2023/03/01 08:43:50;;;;;;;1.03;0.60;;;;;;;;;;5093026;27;87085;-55
2023/03/01 08:46:19;;;;;;;0.63;0.63;;;;;;;;;;5083105;27;86534;-58
2023/03/01 08:48:48;;;;;;;0.50;0.50;;;;;;;;;;5086975;27;89228;-56
2023/03/01 08:51:17;;;;;;;0.70;0.47;;;;;;;;;;5086882;27;89056;-56
2023/03/01 08:53:48;;;;;;;0.37;0.37;;;;;;;;;;5082923;27;87987;-56
2023/03/01 08:56:18;;;;;;;0.60;0.60;;;;;;;;;;5083553;27;86989;-56
2023/03/01 08:58:46;;;;;;;0.53;0.40;;;;;;;;;;5083437;27;87560;-56
2023/03/01 09:01:15;;;;;;;0.30;0.30;;;;;;;;;;5082887;27;88690;-56
2023/03/01 09:03:45;;;;;;;0.87;0.57;;;;;;;;;;5087375;27;87039;-58
2023/03/01 09:06:15;;;;;;;0.80;0.60;;;;;;;;;;5083075;27;87128;-57
2023/03/01 09:08:44;;;;;;;0.40;0.40;;;;;;;;;;5083354;27;88023;-56
2023/03/01 09:11:13;;;;;;;0.80;0.70;;;;;;;;;;5083324;27;87898;-57
2023/03/01 09:13:41;;;;;;;0.50;0.33;;;;;;;;;;5096482;27;87307;-57
2023/03/01 09:16:12;;;;;;;0.50;0.50;;;;;;;;;;5101211;27;87142;-57
2023/03/01 09:18:40;;;;;;;1.00;0.50;;;;;;;;;;5100353;27;90095;-56
2023/03/01 09:21:10;;;;;;;0.97;0.60;;;;;;;;;;5102606;27;88727;-57
2023/03/01 09:23:41;;;;;;;0.40;0.40;;;;;;;;;;5103019;27;86989;-57
2023/03/01 09:26:10;;;;;;;0.40;0.40;;;;;;;;;;5101239;27;86938;-56
2023/03/01 09:28:38;;;;;;;1.03;0.50;;;;;;;;;;5097333;27;88161;-57
2023/03/01 09:31:07;;;;;;;1.07;0.40;;;;;;;;;;5088935;27;88602;-56
2023/03/01 09:33:35;;;;;;;0.47;0.40;;;;;;;;;;5082289;27;87747;-56
2023/03/01 09:36:04;;;;;;;0.60;0.40;;;;;;;;;;5092186;27;86590;-56
2023/03/01 09:38:34;;;;;;;0.40;0.40;;;;;;;;;;5082465;27;88034;-56
2023/03/01 09:41:02;;;;;;;0.40;0.40;;;;;;;;;;5082678;27;89002;-56
2023/03/01 09:43:32;;;;;;;0.60;0.60;;;;;;;;;;5082058;27;88145;-56
2023/03/01 09:46:00;;;;;;;0.23;0.23;;;;;;;;;;5082883;27;87004;-56
2023/03/01 09:48:29;;;;;;;0.67;0.50;;;;;;;;;;5082168;27;88144;-56
2023/03/01 09:50:57;;;;;;;0.50;0.37;;;;;;;;;;5082231;27;87967;-55
2023/03/01 09:53:27;;;;;;;0.90;0.50;;;;;;;;;;5082872;27;87117;-56
2023/03/01 09:55:58;;;;;;;0.50;0.50;;;;;;;;;;5082311;27;86849;-56
2023/03/01 09:58:36;;;;;;;0.43;0.33;;;;;;;;;;5081169;27;89176;-56
2023/03/01 10:01:06;;;;;;;0.80;0.77;;;;;;;;;;5082877;27;89889;-56
2023/03/01 10:03:36;;;;;;;2.73;0.50;;;;;;;;;;5082511;27;87009;-56
2023/03/01 10:06:06;;;;;;;0.47;0.40;;;;;;;;;;5082565;27;87050;-56
2023/03/01 10:08:38;;;;;;;0.37;0.37;;;;;;;;;;5074873;27;89250;-57
2023/03/01 10:11:20;;;;;;;0.40;0.40;;;;;;;;;;5065873;27;89894;-56
2023/03/01 10:13:53;;;;;;;0.30;0.30;;;;;;;;;;5081411;27;86991;-54
2023/03/01 10:16:23;;;;;;;0.30;0.30;;;;;;;;;;5082445;27;87024;-58
2023/03/01 10:18:53;;;;;;;0.70;0.50;;;;;;;;;;5091500;27;89419;-59
2023/03/01 10:21:22;;;;;;;0.40;0.40;;;;;;;;;;5085168;27;88781;-53
2023/03/01 10:23:51;;;;;;;1.30;0.60;;;;;;;;;;5089169;27;87017;-54
2023/03/01 10:26:24;;;;;;;0.67;0.50;;;;;;;;;;5102591;27;87375;-54
2023/03/01 10:28:55;;;;;;;1.23;0.60;;;;;;;;;;5071887;27;89028;-54
2023/03/01 10:31:27;;;;;;;1.53;0.50;;;;;;;;;;5079989;27;87007;-54
2023/03/01 10:33:58;;;;;;;0.37;0.37;;;;;;;;;;5072880;27;87829;-54
2023/03/01 10:36:26;;;;;;;0.60;0.60;;;;;;;;;;5076449;27;86891;-54
2023/03/01 10:38:56;;;;;;;0.97;0.60;;;;;;;;;;5081698;27;88014;-54
2023/03/01 10:41:26;;;;;;;0.60;0.60;;;;;;;;;;5061618;27;87957;-54
2023/03/01 10:43:56;;;;;;;0.53;0.53;;;;;;;;;;5061238;27;86904;-54
2023/03/01 10:46:25;;;;;;;0.80;0.77;;;;;;;;;;5065465;27;86992;-54
2023/03/01 10:49:08;;;;;;;0.83;0.77;;;;;;;;;;5089572;27;88192;-54
2023/03/01 10:51:37;;;;;;;2.13;0.67;;;;;;;;;;5079284;27;87822;-53
2023/03/01 10:54:05;;;;;;;1.83;0.70;;;;;;;;;;5081167;27;87107;-54
2023/03/01 10:56:38;;;;;;;0.53;0.50;;;;;;;;;;5081784;27;86779;-54
2023/03/01 10:59:07;;;;;;;0.60;0.60;;;;;;;;;;5080696;27;89078;-54
2023/03/01 11:01:35;;;;;;;0.93;0.37;;;;;;;;;;5081596;27;88931;-53
2023/03/01 11:04:05;;;;;;;0.33;0.20;;;;;;;;;;5081515;27;86974;-53
2023/03/01 11:06:34;;;;;;;0.40;0.40;;;;;;;;;;5064279;27;86975;-55
2023/03/01 11:09:14;;;;;;;0.30;0.20;;;;;;;;;;5061603;27;87081;-54
2023/03/01 11:11:44;;;;;;;0.20;0.20;;;;;;;;;;5064647;27;88970;-53
2023/03/01 11:14:15;;;;;;;1.50;0.50;;;;;;;;;;5064816;27;86912;-53
2023/03/01 11:17:00;;;;;;;0.93;0.40;;;;;;;;;;5063180;27;86315;-54
2023/03/01 11:19:29;;;;;;;0.30;0.30;;;;;;;;;;5067835;27;88222;-54
2023/03/01 11:21:59;;;;;;;0.23;0.23;;;;;;;;;;5085373;27;88890;-55
2023/03/01 11:24:29;;;;;;;0.20;0.20;;;;;;;;;;5084333;27;87730;-54
2023/03/01 11:26:59;;;;;;;0.30;0.30;;;;;;;;;;5085052;27;86970;-54
2023/03/01 11:29:28;;;;;;;0.70;0.70;;;;;;;;;;5103139;27;89098;-54
2023/03/01 11:32:08;;;;;;;1.60;1.50;;;;;;;;;;5105652;27;87676;-54
2023/03/01 11:34:39;;;;;;;1.90;1.50;;;;;;;;;;5105503;27;86902;-53
2023/03/01 11:37:11;;;;;;;7.03;2.13;;;;;;;;;;5105318;27;86925;-53
2023/03/01 11:39:41;;;;;;;5.60;2.10;;;;;;;;;;5105429;27;89154;-52
2023/03/01 11:42:13;;;;;;;8.63;2.70;;;;;;;;;;5105798;27;87959;-55
2023/03/01 11:44:46;;;;;;;7.33;3.40;;;;;;;;;;5105833;27;86997;-54
2023/03/01 11:47:24;;;;;;;6.87;2.87;;;;;;;;;;5105392;27;86934;-53
2023/03/01 11:50:08;;;;;;;11.53;3.27;;;;;;;;;;5086787;27;87934;-53
2023/03/01 11:52:38;;;;;;;13.13;4.63;;;;;;;;;;5083978;27;89677;-54
2023/03/01 11:55:13;;;;;;;8.27;2.83;;;;;;;;;;5068868;27;87002;-54
2023/03/01 11:57:59;;;;;;;8.60;2.90;;;;;;;;;;5084579;27;86993;-58
2023/03/01 12:00:35;;;;;;;10.90;2.73;;;;;;;;;;5084498;27;89092;-58
2023/03/01 12:03:11;;;;;;;3.63;2.40;;;;;;;;;;5084313;27;87926;-58
2023/03/01 12:06:03;;;;;;;7.83;2.07;;;;;;;;;;5063690;27;87059;-59
2023/03/01 12:08:33;;;;;;;6.03;1.90;;;;;;;;;;5078662;27;86277;-59
2023/03/01 12:11:03;;;;;;;5.00;2.27;;;;;;;;;;5084141;27;88967;-59
2023/03/01 12:13:41;;;;;;;2.30;1.63;;;;;;;;;;5083830;27;88892;-59
2023/03/01 12:16:14;;;;;;;2.70;1.10;;;;;;;;;;5084313;27;87891;-54
2023/03/01 12:18:54;;;;;;;5.90;2.73;;;;;;;;;;5077619;27;86993;-54
2023/03/01 12:21:25;;;;;;;8.47;2.33;;;;;;;;;;5081093;27;86835;-56
2023/03/01 12:23:58;;;;;;;3.83;2.27;;;;;;;;;;5105240;27;87867;-55
2023/03/01 12:26:28;;;;;;;5.03;2.50;;;;;;;;;;5088020;27;86793;-56
2023/03/01 12:29:23;;;;;;;3.10;1.63;;;;;;;;;;5083980;27;86985;-55
2023/03/01 12:32:09;;;;;;;2.67;1.63;;;;;;;;;;5036493;27;88169;-55
2023/03/01 12:34:55;;;;;;;2.80;1.50;;;;;;;;;;5083693;27;87726;-53
2023/03/01 12:37:29;;;;;;;1.10;0.90;;;;;;;;;;5083919;27;86990;-53
2023/03/01 12:40:04;;;;;;;2.33;1.10;;;;;;;;;;5084372;27;86992;-54
2023/03/01 12:42:33;;;;;;;0.60;0.60;;;;;;;;;;5083515;27;88948;-54
2023/03/01 12:45:23;;;;;;;1.23;0.80;;;;;;;;;;5083883;27;88652;-53
2023/03/01 12:47:56;;;;;;;1.73;1.03;;;;;;;;;;5080623;27;87094;-57
2023/03/01 12:50:25;;;;;;;0.80;0.80;;;;;;;;;;5096841;27;86920;-54
2023/03/01 12:52:55;;;;;;;1.27;0.97;;;;;;;;;;5083229;27;88348;-53
2023/03/01 12:55:26;;;;;;;1.17;1.00;;;;;;;;;;5087276;27;87772;-54
2023/03/01 12:57:56;;;;;;;1.53;1.07;;;;;;;;;;5083690;27;86881;-54
2023/03/01 13:00:27;;;;;;;1.17;0.70;;;;;;;;;;5087756;27;86306;-53
2023/03/01 13:02:56;;;;;;;1.53;1.07;;;;;;;;;;5104090;27;88454;-53
2023/03/01 13:05:26;;;;;;;0.63;0.60;;;;;;;;;;5087480;27;87949;-54
2023/03/01 13:07:56;;;;;;;1.07;1.00;;;;;;;;;;5094533;27;87719;-53
2023/03/01 13:10:26;;;;;;;0.50;0.50;;;;;;;;;;5102328;27;86994;-54
2023/03/01 13:13:03;;;;;;;0.83;0.60;;;;;;;;;;5102045;27;89253;-54
2023/03/01 13:15:34;;;;;;;1.50;1.13;;;;;;;;;;5103639;27;87939;-54
2023/03/01 13:18:03;;;;;;;4.60;0.93;;;;;;;;;;5102276;27;86923;-53
2023/03/01 13:20:33;;;;;;;0.87;0.87;;;;;;;;;;5098051;27;87395;-54
2023/03/01 13:23:04;;;;;;;4.33;1.07;;;;;;;;;;5094916;27;89038;-52
2023/03/01 13:25:33;;;;;;;0.63;0.50;;;;;;;;;;5087649;27;86609;-53
2023/03/01 13:28:28;;;;;;;0.50;0.50;;;;;;;;;;5097576;27;87001;-54
2023/03/01 13:30:56;;;;;;;1.10;1.00;;;;;;;;;;5085123;27;87020;-54
2023/03/01 13:33:44;;;;;;;1.57;0.70;;;;;;;;;;5081699;27;89124;-54
2023/03/01 13:36:30;;;;;;;1.90;0.93;;;;;;;;;;5081136;27;88603;-54
2023/03/01 13:39:01;;;;;;;0.50;0.50;;;;;;;;;;5083670;27;86909;-53
2023/03/01 13:41:44;;;;;;;1.03;0.93;;;;;;;;;;5103738;27;87002;-53
2023/03/01 13:44:13;;;;;;;0.80;0.80;;;;;;;;;;5070571;27;88163;-54
2023/03/01 13:46:42;;;;;;;1.27;1.07;;;;;;;;;;5103529;27;87807;-54
2023/03/01 13:49:11;;;;;;;1.30;1.00;;;;;;;;;;5103356;27;87045;-54
2023/03/01 13:51:39;;;;;;;1.53;0.80;;;;;;;;;;5103143;27;86264;-56
2023/03/01 13:54:12;;;;;;;1.00;0.70;;;;;;;;;;5099315;27;88607;-56
2023/03/01 13:56:40;;;;;;;0.80;0.60;;;;;;;;;;5084716;27;88983;-56
2023/03/01 13:59:14;;;;;;;1.43;1.13;;;;;;;;;;5082537;27;88140;-56
2023/03/01 14:01:43;;;;;;;1.00;0.90;;;;;;;;;;5094802;27;87086;-56
2023/03/01 14:04:21;;;;;;;1.20;0.90;;;;;;;;;;5102612;27;87458;-55
2023/03/01 14:06:49;;;;;;;1.10;0.93;;;;;;;;;;5103251;27;89427;-56
2023/03/01 14:09:20;;;;;;;2.53;0.80;;;;;;;;;;5103439;27;87003;-55
2023/03/01 14:11:54;;;;;;;1.60;0.80;;;;;;;;;;5102693;27;87183;-55
2023/03/01 14:14:26;;;;;;;0.80;0.80;;;;;;;;;;5102766;27;89069;-55
2023/03/01 14:16:56;;;;;;;0.60;0.60;;;;;;;;;;5103558;27;87787;-55
2023/03/01 14:19:25;;;;;;;0.93;0.77;;;;;;;;;;5103497;27;86930;-55
2023/03/01 14:22:03;;;;;;;1.03;0.53;;;;;;;;;;5103028;27;86923;-55
2023/03/01 14:24:33;;;;;;;0.63;0.60;;;;;;;;;;5102768;27;87961;-56
2023/03/01 14:27:02;;;;;;;1.07;0.90;;;;;;;;;;5103308;27;88948;-56
2023/03/01 14:29:35;;;;;;;0.97;0.80;;;;;;;;;;5103840;27;86862;-55
2023/03/01 14:32:10;;;;;;;0.70;0.70;;;;;;;;;;5102548;27;87192;-55
2023/03/01 14:34:38;;;;;;;1.93;1.03;;;;;;;;;;5102231;27;89217;-55
2023/03/01 14:37:13;;;;;;;1.10;0.60;;;;;;;;;;5102268;27;87800;-56
2023/03/01 14:39:43;;;;;;;1.10;1.00;;;;;;;;;;5103071;27;86959;-56
2023/03/01 14:42:11;;;;;;;0.90;0.90;;;;;;;;;;5102831;27;86251;-56
2023/03/01 14:44:43;;;;;;;1.40;1.00;;;;;;;;;;5106210;27;88018;-55
2023/03/01 14:47:14;;;;;;;0.97;0.90;;;;;;;;;;5106016;27;88886;-55
2023/03/01 14:49:42;;;;;;;2.47;0.90;;;;;;;;;;5106173;27;87916;-56
2023/03/01 14:52:18;;;;;;;0.70;0.70;;;;;;;;;;5106049;27;87048;-55
2023/03/01 14:54:48;;;;;;;0.70;0.70;;;;;;;;;;5106183;27;87859;-55
2023/03/01 14:57:17;;;;;;;1.27;0.80;;;;;;;;;;5106383;27;87676;-56
2023/03/01 14:59:45;;;;;;;1.77;0.93;;;;;;;;;;5106061;27;86865;-54
2023/03/01 15:02:16;;;;;;;0.60;0.60;;;;;;;;;;5106315;27;86993;-55